createdAt,value
2022-10-02T00:01:51.491Z,100431.75
2022-10-02T00:04:25.847Z,100434.25
2022-10-02T00:06:59.454Z,100444.94
2022-10-02T00:09:33.114Z,100433.00
2022-10-02T00:12:02.060Z,100438.25
2022-10-02T00:14:36.503Z,100440.97
2022-10-02T00:17:07.719Z,100438.69
2022-10-02T00:19:35.586Z,100439.03
2022-10-02T00:22:23.397Z,100440.31
2022-10-02T00:24:58.819Z,100442.41
2022-10-02T00:27:41.411Z,100440.31
2022-10-02T00:30:12.633Z,100437.69
2022-10-02T00:32:54.679Z,100437.47
2022-10-02T00:35:57.366Z,100437.25
2022-10-02T00:38:37.238Z,100439.03
2022-10-02T00:41:22.005Z,100431.28
2022-10-02T00:44:07.105Z,100438.91
2022-10-02T00:46:46.575Z,100439.88
2022-10-02T00:49:33.322Z,100441.53
2022-10-02T00:52:22.072Z,100445.09
2022-10-02T00:55:04.608Z,100443.56
2022-10-02T00:57:49.448Z,100439.97
2022-10-02T01:00:19.711Z,100449.47
2022-10-02T01:03:09.896Z,100439.25
2022-10-02T01:05:40.124Z,100441.97
2022-10-02T01:08:09.305Z,100447.09
2022-10-02T01:10:39.219Z,100443.66
2022-10-02T01:13:07.899Z,100443.78
2022-10-02T01:15:39.067Z,100444.81
2022-10-02T01:18:08.818Z,100444.91
2022-10-02T01:20:41.773Z,100445.13
2022-10-02T01:23:24.590Z,100441.72
2022-10-02T01:25:54.072Z,100447.88
2022-10-02T01:28:23.269Z,100447.88
2022-10-02T01:30:56.016Z,100446.09
2022-10-02T01:33:24.242Z,100441.09
2022-10-02T01:35:52.499Z,100441.19
2022-10-02T01:38:23.840Z,100443.44
2022-10-02T01:40:53.089Z,100442.59
2022-10-02T01:43:23.950Z,100443.56
2022-10-02T01:46:28.895Z,100440.94
2022-10-02T01:49:06.927Z,100438.31
2022-10-02T01:51:50.229Z,100439.25
2022-10-02T01:54:26.238Z,100433.44
2022-10-02T01:57:07.632Z,100430.72
2022-10-02T01:59:48.709Z,100435.81
2022-10-02T02:02:24.465Z,100433.53
2022-10-02T02:04:59.418Z,100426.53
2022-10-02T02:07:35.692Z,100439.38
2022-10-02T02:10:14.183Z,100427.88
2022-10-02T02:12:48.553Z,100431.41
2022-10-02T02:15:21.694Z,100432.16
2022-10-02T02:17:55.790Z,100427.66
2022-10-02T02:20:29.590Z,100437.78
2022-10-02T02:23:05.298Z,100433.16
2022-10-02T02:25:37.926Z,100429.34
2022-10-02T02:28:10.593Z,100429.88
2022-10-02T02:30:41.321Z,100430.38
2022-10-02T02:33:16.469Z,100422.41
2022-10-02T02:35:48.092Z,100426.56
2022-10-02T02:38:23.172Z,100430.84
2022-10-02T02:40:52.951Z,100423.75
2022-10-02T02:43:27.061Z,100420.91
2022-10-02T02:45:58.693Z,100422.66
2022-10-02T02:48:30.792Z,100426.75
2022-10-02T02:51:03.723Z,100421.41
2022-10-02T02:53:36.497Z,100416.88
2022-10-02T02:56:07.411Z,100424.72
2022-10-02T02:58:41.747Z,100421.28
2022-10-02T03:01:09.843Z,100422.94
2022-10-02T03:03:37.807Z,100422.94
2022-10-02T03:06:25.543Z,100425.69
2022-10-02T03:08:54.837Z,100425.56
2022-10-02T03:11:34.357Z,100430.78
2022-10-02T03:14:11.909Z,100434.38
2022-10-02T03:16:49.114Z,100429.84
2022-10-02T03:19:32.624Z,100431.53
2022-10-02T03:22:11.818Z,100428.78
2022-10-02T03:24:48.083Z,100430.69
2022-10-02T03:27:21.963Z,100439.03
2022-10-02T03:29:58.176Z,100439.03
2022-10-02T03:32:28.056Z,100436.31
2022-10-02T03:34:57.189Z,100441.53
2022-10-02T03:37:26.506Z,100448.31
2022-10-02T03:39:54.393Z,100438.81
2022-10-02T03:42:28.071Z,100449.38
2022-10-02T03:44:57.304Z,100438.28
2022-10-02T03:47:25.161Z,100438.41
2022-10-02T03:49:53.075Z,100447.91
2022-10-02T03:52:23.464Z,100439.38
2022-10-02T03:54:54.673Z,100449.19
2022-10-02T03:57:25.663Z,100443.75
2022-10-02T04:00:02.856Z,100441.88
2022-10-02T04:02:36.230Z,100438.28
2022-10-02T04:05:15.366Z,100438.19
2022-10-02T04:07:52.414Z,100439.84
2022-10-02T04:10:33.644Z,100440.56
2022-10-02T04:13:12.988Z,100437.97
2022-10-02T04:15:54.879Z,100435.22
2022-10-02T04:18:27.644Z,100429.03
2022-10-02T04:20:59.401Z,100438.44
2022-10-02T04:23:32.533Z,100440.94
2022-10-02T04:26:04.819Z,100440.00
2022-10-02T04:28:38.606Z,100438.31
2022-10-02T04:31:13.194Z,100436.44
2022-10-02T04:33:41.669Z,100436.31
2022-10-02T04:36:28.183Z,100435.34
2022-10-02T04:39:28.519Z,100432.84
2022-10-02T04:42:10.405Z,100445.00
2022-10-02T04:44:54.755Z,100449.28
2022-10-02T04:47:47.261Z,100447.50
2022-10-02T04:50:32.762Z,100451.78
2022-10-02T04:53:17.340Z,100457.13
2022-10-02T04:56:03.651Z,100457.13
2022-10-02T04:58:47.065Z,100460.47
2022-10-02T05:01:27.359Z,100463.09
2022-10-02T05:04:14.191Z,100450.81
2022-10-02T05:07:05.651Z,100448.09
2022-10-02T05:09:40.217Z,100440.84
2022-10-02T05:12:31.748Z,100451.31
2022-10-02T05:15:41.895Z,100454.78
2022-10-02T05:18:30.656Z,100460.00
2022-10-02T05:21:14.233Z,100450.38
2022-10-02T05:23:57.210Z,100453.09
2022-10-02T05:26:36.612Z,100479.97
2022-10-02T05:29:17.000Z,100484.38
2022-10-02T05:32:04.050Z,100481.75
2022-10-02T05:34:49.574Z,100468.56
2022-10-02T05:37:43.850Z,100468.78
2022-10-02T05:40:19.269Z,100483.44
2022-10-02T05:42:54.188Z,100497.00
2022-10-02T05:45:28.382Z,100488.09
2022-10-02T05:48:04.586Z,100481.91
2022-10-02T05:50:36.551Z,100479.22
2022-10-02T05:53:12.157Z,100478.13
2022-10-02T05:55:47.971Z,100488.50
2022-10-02T05:58:22.324Z,100504.91
2022-10-02T06:00:56.299Z,100497.78
2022-10-02T06:03:33.402Z,100511.47
2022-10-02T06:06:09.583Z,100508.63
2022-10-02T06:08:43.738Z,100498.16
2022-10-02T06:11:17.081Z,100500.66
2022-10-02T06:13:52.764Z,100511.00
2022-10-02T06:16:25.641Z,100509.22
2022-10-02T06:18:58.102Z,100510.78
2022-10-02T06:21:33.345Z,100495.81
2022-10-02T06:24:12.140Z,100501.63
2022-10-02T06:26:46.820Z,100497.22
2022-10-02T06:29:26.860Z,100498.19
2022-10-02T06:32:02.110Z,100493.78
2022-10-02T06:34:30.039Z,100486.75
2022-10-02T06:37:15.596Z,100493.44
2022-10-02T06:40:04.574Z,100502.84
2022-10-02T06:42:43.240Z,100501.03
2022-10-02T06:45:23.951Z,100500.22
2022-10-02T06:48:03.044Z,100495.00
2022-10-02T06:50:41.123Z,100496.66
2022-10-02T06:53:21.196Z,100502.50
2022-10-02T06:56:01.350Z,100504.88
2022-10-02T06:58:45.660Z,100509.16
2022-10-02T07:01:25.068Z,100509.28
2022-10-02T07:04:09.707Z,100512.75
2022-10-02T07:06:47.454Z,100510.13
2022-10-02T07:09:55.889Z,100509.03
2022-10-02T07:13:06.251Z,100508.81
2022-10-02T07:15:58.129Z,100511.31
2022-10-02T07:18:42.765Z,100508.56
2022-10-02T07:21:20.229Z,100507.50
2022-10-02T07:24:00.067Z,100516.94
2022-10-02T07:26:47.995Z,100514.88
2022-10-02T07:29:32.427Z,100510.25
2022-10-02T07:32:35.571Z,100514.19
2022-10-02T07:35:18.115Z,100515.59
2022-10-02T07:37:58.791Z,100505.63
2022-10-02T07:40:37.764Z,100506.00
2022-10-02T07:43:23.320Z,100507.16
2022-10-02T07:45:57.678Z,100511.09
2022-10-02T07:48:52.964Z,100512.28
2022-10-02T07:51:50.009Z,100511.22
2022-10-02T07:54:43.863Z,100513.69
2022-10-02T07:57:33.991Z,100508.81
2022-10-02T08:00:06.505Z,100509.97
2022-10-02T08:02:40.723Z,100493.69
2022-10-02T08:05:19.680Z,100505.31
2022-10-02T08:07:50.966Z,100511.84
2022-10-02T08:10:25.835Z,100516.50
2022-10-02T08:13:04.276Z,100513.38
2022-10-02T08:15:38.637Z,100511.94
2022-10-02T08:18:33.582Z,100506.19
2022-10-02T08:21:05.562Z,100509.03
2022-10-02T08:23:40.463Z,100506.84
2022-10-02T08:26:13.820Z,100512.44
2022-10-02T08:28:48.018Z,100507.66
2022-10-02T08:31:16.284Z,100510.69
2022-10-02T08:33:44.272Z,100513.78
2022-10-02T08:36:38.879Z,100508.97
2022-10-02T08:39:22.081Z,100515.53
2022-10-02T08:42:26.037Z,100515.00
2022-10-02T08:45:22.816Z,100507.69
2022-10-02T08:48:35.389Z,100518.53
2022-10-02T08:51:26.604Z,100513.72
2022-10-02T08:54:24.469Z,100508.91
2022-10-02T08:57:07.863Z,100510.31
2022-10-02T09:00:10.423Z,100513.38
2022-10-02T09:03:11.297Z,100511.19
2022-10-02T09:06:20.554Z,100515.09
2022-10-02T09:09:24.555Z,100516.63
2022-10-02T09:14:34.835Z,100521.47
2022-10-02T09:17:16.492Z,100522.78
2022-10-02T09:19:57.091Z,100516.41
2022-10-02T09:22:58.950Z,100518.53
2022-10-02T09:25:37.859Z,100521.00
2022-10-02T09:28:52.488Z,100519.81
2022-10-02T09:31:55.825Z,100529.78
2022-10-02T09:35:14.232Z,100535.63
2022-10-02T09:38:24.568Z,100535.22
2022-10-02T09:41:33.866Z,100541.19
2022-10-02T09:44:34.216Z,100544.38
2022-10-02T09:48:05.142Z,100544.13
2022-10-02T09:51:09.461Z,100542.19
2022-10-02T09:54:10.147Z,100541.94
2022-10-02T09:57:07.008Z,100536.53
2022-10-02T10:00:03.948Z,100533.50
2022-10-02T10:03:10.413Z,100539.72
2022-10-02T10:06:00.411Z,100532.53
2022-10-02T10:08:52.752Z,100538.63
2022-10-02T10:11:47.800Z,100541.94
2022-10-02T10:15:08.629Z,100547.19
2022-10-02T10:18:18.265Z,100541.00
2022-10-02T10:21:21.529Z,100537.97
2022-10-02T10:24:24.324Z,100541.00
2022-10-02T10:27:11.756Z,100549.59
2022-10-02T10:30:13.271Z,100551.13
2022-10-02T10:33:08.242Z,100554.88
2022-10-02T10:36:00.021Z,100549.47
2022-10-02T10:38:46.347Z,100549.47
2022-10-02T10:41:47.395Z,100548.50
2022-10-02T10:44:38.347Z,100557.22
2022-10-02T10:47:24.828Z,100561.78
2022-10-02T10:50:25.069Z,100554.88
2022-10-02T10:53:30.525Z,100554.28
2022-10-02T10:56:22.013Z,100553.63
2022-10-02T10:59:09.795Z,100555.66
2022-10-02T11:01:49.887Z,100562.72
2022-10-02T11:04:39.357Z,100555.81
2022-10-02T11:07:35.134Z,100557.31
2022-10-02T11:10:22.786Z,100567.03
2022-10-02T11:13:09.868Z,100567.97
2022-10-02T11:16:09.130Z,100573.25
2022-10-02T11:18:48.955Z,100572.69
2022-10-02T11:21:35.235Z,100564.94
2022-10-02T11:24:22.950Z,100562.72
2022-10-02T11:27:04.959Z,100564.41
2022-10-02T11:29:56.566Z,100571.31
2022-10-02T11:32:51.425Z,100570.34
2022-10-02T11:35:26.039Z,100573.81
2022-10-02T11:38:16.203Z,100571.91
2022-10-02T11:41:07.456Z,100575.06
2022-10-02T11:44:01.373Z,100577.44
2022-10-02T11:47:12.021Z,100576.44
2022-10-02T11:50:00.236Z,100582.97
2022-10-02T11:52:47.994Z,100582.69
2022-10-02T11:55:30.207Z,100587.97
2022-10-02T11:58:12.353Z,100591.44
2022-10-02T12:01:07.408Z,100584.34
2022-10-02T12:03:50.289Z,100589.59
2022-10-02T12:06:33.663Z,100589.34
2022-10-02T12:09:10.087Z,100592.53
2022-10-02T12:11:43.383Z,100597.69
2022-10-02T12:14:21.387Z,100598.53
2022-10-02T12:17:12.006Z,100600.03
2022-10-02T12:20:05.674Z,100597.81
2022-10-02T12:22:58.386Z,100607.94
2022-10-02T12:25:51.197Z,100606.97
2022-10-02T12:28:29.648Z,100610.56
2022-10-02T12:31:06.979Z,100617.34
2022-10-02T12:33:44.136Z,100614.72
2022-10-02T12:36:34.877Z,100618.06
2022-10-02T12:39:21.293Z,100623.31
2022-10-02T12:42:04.908Z,100628.72
2022-10-02T12:44:47.732Z,100630.50
2022-10-02T12:47:42.187Z,100628.00
2022-10-02T12:50:24.471Z,100626.22
2022-10-02T12:53:29.153Z,100627.06
2022-10-02T12:56:16.645Z,100635.09
2022-10-02T12:58:57.136Z,100629.84
2022-10-02T13:01:39.978Z,100638.13
2022-10-02T13:04:38.149Z,100636.88
2022-10-02T13:07:48.810Z,100639.78
2022-10-02T13:10:20.336Z,100649.03
2022-10-02T13:13:05.510Z,100640.63
2022-10-02T13:15:43.154Z,100647.53
2022-10-02T13:18:28.781Z,100656.41
2022-10-02T13:21:06.162Z,100650.31
2022-10-02T13:23:45.450Z,100655.56
2022-10-02T13:26:23.612Z,100652.22
2022-10-02T13:29:24.348Z,100651.53
2022-10-02T13:32:22.943Z,100659.44
2022-10-02T13:35:04.420Z,100657.06
2022-10-02T13:37:45.300Z,100668.53
2022-10-02T13:40:26.115Z,100661.63
2022-10-02T13:43:26.948Z,100672.28
2022-10-02T13:46:04.913Z,100676.00
2022-10-02T13:48:45.822Z,100677.00
2022-10-02T13:51:23.078Z,100670.16
2022-10-02T13:54:29.613Z,100677.94
2022-10-02T13:57:06.813Z,100683.59
2022-10-02T14:00:02.165Z,100688.72
2022-10-02T14:02:46.733Z,100683.72
2022-10-02T14:05:28.564Z,100691.59
2022-10-02T14:08:13.876Z,100692.56
2022-10-02T14:10:53.487Z,100692.00
2022-10-02T14:13:38.156Z,100698.09
2022-10-02T14:16:22.023Z,100701.72
2022-10-02T14:19:11.218Z,100703.34
2022-10-02T14:21:46.331Z,100706.00
2022-10-02T14:24:54.655Z,100713.88
2022-10-02T14:28:06.997Z,100714.84
2022-10-02T14:30:48.527Z,100720.94
2022-10-02T14:33:27.276Z,100731.31
2022-10-02T14:36:07.219Z,100726.06
2022-10-02T14:38:49.510Z,100727.16
2022-10-02T14:41:50.479Z,100740.56
2022-10-02T14:44:35.965Z,100739.03
2022-10-02T14:47:22.420Z,100739.97
2022-10-02T14:50:11.903Z,100731.28
2022-10-02T14:52:53.601Z,100737.47
2022-10-02T14:55:37.398Z,100743.13
2022-10-02T14:58:18.180Z,100748.38
2022-10-02T15:00:58.374Z,100747.81
2022-10-02T15:03:48.769Z,100749.88
2022-10-02T15:06:27.185Z,100751.78
2022-10-02T15:09:02.188Z,100756.47
2022-10-02T15:11:54.552Z,100757.81
2022-10-02T15:14:29.754Z,100755.44
2022-10-02T15:17:19.543Z,100765.34
2022-10-02T15:19:52.097Z,100765.72
2022-10-02T15:22:25.618Z,100768.59
2022-10-02T15:24:59.088Z,100772.31
2022-10-02T15:27:32.720Z,100776.38
2022-10-02T15:30:13.193Z,100781.75
2022-10-02T15:33:01.947Z,100772.25
2022-10-02T15:35:40.895Z,100777.25
2022-10-02T15:38:25.188Z,100778.34
2022-10-02T15:41:19.480Z,100782.19
2022-10-02T15:43:57.351Z,100788.50
2022-10-02T15:46:35.466Z,100787.94
2022-10-02T15:49:12.909Z,100796.19
2022-10-02T15:51:59.543Z,100803.44
2022-10-02T15:54:38.807Z,100799.53
2022-10-02T15:57:22.453Z,100809.56
2022-10-02T16:00:11.154Z,100811.59
2022-10-02T16:03:01.094Z,100813.88
2022-10-02T16:05:50.329Z,100818.50
2022-10-02T16:08:36.802Z,100825.94
2022-10-02T16:11:21.129Z,100834.16
2022-10-02T16:14:00.403Z,100834.41
2022-10-02T16:17:03.003Z,100840.84
2022-10-02T16:19:49.228Z,100849.91
2022-10-02T16:22:33.481Z,100845.00
2022-10-02T16:25:21.077Z,100858.13
2022-10-02T16:27:54.236Z,100856.56
2022-10-02T16:30:25.044Z,100857.53
2022-10-02T16:33:11.235Z,100860.41
2022-10-02T16:35:59.611Z,100865.88
2022-10-02T16:38:42.673Z,100872.19
2022-10-02T16:41:37.061Z,100871.59
2022-10-02T16:44:24.428Z,100876.22
2022-10-02T16:46:59.884Z,100879.31
2022-10-02T16:49:34.723Z,100882.16
2022-10-02T16:52:11.643Z,100885.63
2022-10-02T16:54:46.070Z,100889.31
2022-10-02T16:57:29.350Z,100883.59
2022-10-02T17:00:06.172Z,100885.91
2022-10-02T17:02:46.115Z,100902.72
2022-10-02T17:05:24.827Z,100896.94
2022-10-02T17:08:02.505Z,100897.19
2022-10-02T17:10:39.537Z,100899.22
2022-10-02T17:13:28.930Z,100901.94
2022-10-02T17:16:06.391Z,100903.84
2022-10-02T17:18:43.530Z,100902.50
2022-10-02T17:21:17.135Z,100899.88
2022-10-02T17:23:54.662Z,100907.97
2022-10-02T17:26:33.451Z,100910.81
2022-10-02T17:29:08.626Z,100913.66
2022-10-02T17:31:46.193Z,100918.28
2022-10-02T17:34:21.274Z,100921.97
2022-10-02T17:36:57.994Z,100918.72
2022-10-02T17:39:52.428Z,100923.38
2022-10-02T17:42:30.544Z,100932.38
2022-10-02T17:45:09.490Z,100935.09
2022-10-02T17:47:54.183Z,100931.03
2022-10-02T17:50:39.281Z,100941.00
2022-10-02T17:53:41.272Z,100937.88
2022-10-02T17:56:31.197Z,100946.06
2022-10-02T17:59:21.538Z,100937.56
2022-10-02T18:02:02.185Z,100948.16
2022-10-02T18:04:41.860Z,100954.47
2022-10-02T18:07:41.714Z,100958.22
2022-10-02T18:10:25.834Z,100962.63
2022-10-02T18:13:07.807Z,100962.75
2022-10-02T18:16:02.214Z,100968.09
2022-10-02T18:18:39.008Z,100968.31
2022-10-02T18:21:28.126Z,100972.91
2022-10-02T18:24:21.198Z,100975.75
2022-10-02T18:27:14.464Z,100975.03
2022-10-02T18:29:59.695Z,100977.75
2022-10-02T18:32:48.622Z,100981.28
2022-10-02T18:35:33.117Z,100984.00
2022-10-02T18:38:13.539Z,100985.91
2022-10-02T18:40:57.707Z,100982.97
2022-10-02T18:43:47.781Z,100991.56
2022-10-02T18:46:27.490Z,100989.16
2022-10-02T18:49:08.617Z,100992.00
2022-10-02T18:52:16.739Z,100994.72
2022-10-02T18:54:55.963Z,100996.69
2022-10-02T18:57:47.825Z,100996.69
2022-10-02T19:00:21.490Z,101005.50
2022-10-02T19:03:19.961Z,101004.00
2022-10-02T19:05:52.049Z,101012.91
2022-10-02T19:08:25.830Z,101013.97
2022-10-02T19:10:54.093Z,101016.69
2022-10-02T19:13:27.421Z,101024.72
2022-10-02T19:15:58.368Z,101029.22
2022-10-02T19:18:27.877Z,101033.63
2022-10-02T19:21:00.264Z,101032.88
2022-10-02T19:23:32.602Z,101031.13
2022-10-02T19:26:06.006Z,101035.50
2022-10-02T19:28:45.546Z,101046.94
2022-10-02T19:31:14.218Z,101045.22
2022-10-02T19:33:49.895Z,101042.72
2022-10-02T19:36:21.178Z,101047.22
2022-10-02T19:38:55.635Z,101041.44
2022-10-02T19:41:24.291Z,101045.19
2022-10-02T19:43:59.008Z,101046.19
2022-10-02T19:46:35.669Z,101055.19
2022-10-02T19:49:04.275Z,101061.19
2022-10-02T19:51:43.340Z,101066.41
2022-10-02T19:54:17.381Z,101065.66
2022-10-02T19:56:46.651Z,101067.44
2022-10-02T19:59:19.612Z,101066.59
2022-10-02T20:01:51.720Z,101064.00
2022-10-02T20:04:21.817Z,101064.91
2022-10-02T20:06:53.137Z,101063.25
2022-10-02T20:09:26.402Z,101069.22
2022-10-02T20:11:58.822Z,101078.84
2022-10-02T20:14:32.415Z,101073.69
2022-10-02T20:17:11.125Z,101072.03
2022-10-02T20:19:45.281Z,101075.56
2022-10-02T20:22:19.134Z,101079.88
2022-10-02T20:24:52.005Z,101085.94
2022-10-02T20:27:25.635Z,101093.06
2022-10-02T20:30:00.992Z,101086.97
2022-10-02T20:32:33.270Z,101088.75
2022-10-02T20:35:08.414Z,101093.16
2022-10-02T20:37:37.503Z,101094.94
2022-10-02T20:40:13.920Z,101096.69
2022-10-02T20:42:48.523Z,101101.28
2022-10-02T20:45:18.228Z,101101.41
2022-10-02T20:48:35.781Z,101105.03
2022-10-02T20:51:18.351Z,101107.75
2022-10-02T20:54:18.630Z,101105.13
2022-10-02T20:57:37.968Z,101102.59
2022-10-02T21:00:18.763Z,101106.16
2022-10-02T21:03:11.979Z,101106.25
2022-10-02T21:06:18.533Z,101113.38
2022-10-02T21:09:12.567Z,101126.38
2022-10-02T21:12:03.141Z,101122.91
2022-10-02T21:14:53.905Z,101122.91
2022-10-02T21:17:57.066Z,101120.47
2022-10-02T21:21:13.474Z,101123.38
2022-10-02T21:24:21.840Z,101130.38
2022-10-02T21:27:14.618Z,101145.97
2022-10-02T21:30:05.563Z,101136.34
2022-10-02T21:33:03.292Z,101139.16
2022-10-02T21:35:41.974Z,101136.75
2022-10-02T21:38:58.842Z,101153.38
2022-10-02T21:41:55.194Z,101150.84
2022-10-02T21:45:06.196Z,101144.97
2022-10-02T21:48:13.911Z,101163.34
2022-10-02T21:51:21.390Z,101162.59
2022-10-02T21:54:31.190Z,101162.69
2022-10-02T21:57:33.455Z,101171.56
2022-10-02T22:00:14.302Z,101166.53
2022-10-02T22:03:12.381Z,101166.53
2022-10-02T22:06:16.559Z,101173.34
2022-10-02T22:08:56.948Z,101167.47
2022-10-02T22:11:34.433Z,101176.22
2022-10-02T22:14:10.123Z,101168.38
2022-10-02T22:16:47.391Z,101178.75
2022-10-02T22:19:32.707Z,101175.41
2022-10-02T22:22:15.471Z,101181.56
2022-10-02T22:25:02.900Z,101185.09
2022-10-02T22:27:51.124Z,101183.44
2022-10-02T22:30:25.388Z,101187.91
2022-10-02T22:33:13.555Z,101187.91
2022-10-02T22:36:20.417Z,101188.94
2022-10-02T22:38:54.883Z,101186.41
2022-10-02T22:41:29.435Z,101198.81
2022-10-02T22:44:01.904Z,101197.16
2022-10-02T22:46:41.130Z,101196.28
2022-10-02T22:49:19.504Z,101197.16
2022-10-02T22:51:57.975Z,101201.63
2022-10-02T22:54:36.664Z,101205.16
2022-10-02T22:57:16.822Z,101205.25
2022-10-02T22:59:52.406Z,101207.13
2022-10-02T23:02:26.078Z,101204.59
2022-10-02T23:05:01.551Z,101208.16
2022-10-02T23:07:35.744Z,101211.78
2022-10-02T23:10:18.809Z,101212.78
2022-10-02T23:12:58.677Z,101220.72
2022-10-02T23:15:35.872Z,101216.44
2022-10-02T23:18:07.287Z,101213.91
2022-10-02T23:20:39.220Z,101220.81
2022-10-02T23:23:16.617Z,101229.59
2022-10-02T23:25:53.653Z,101227.91
2022-10-02T23:28:27.663Z,101218.47
2022-10-02T23:31:06.374Z,101232.66
2022-10-02T23:33:46.130Z,101232.75
2022-10-02T23:36:24.222Z,101234.69
2022-10-02T23:39:00.136Z,101239.91
2022-10-02T23:41:46.475Z,101238.31
2022-10-02T23:44:25.627Z,101235.03
2022-10-02T23:47:10.128Z,101239.53
2022-10-02T23:49:40.819Z,101241.47
2022-10-02T23:52:41.206Z,101245.09
2022-10-02T23:55:44.241Z,101245.44
2022-10-02T23:58:43.901Z,101248.72
